CheckWX is a tool to help pilots better visualize weather data.  It is not intended as a substitute for an official pre-flight weather briefing.

18:04:13 UTC

KMGY METAR
Dayton-Wright Brothers Airport
Dayton, Ohio, USA
Current

11 mins ago

KMGY 171753Z AUTO 07008KT 10SM OVC014 M01/M04 A2979 RMK AO2 UPE1659B30E44 SLP096 P0000 60000 T10061044 11006 21033 56017
Observed
Feb-17 @ 17:53 UTC
Wind
  • 070° at 8 KTS
Visibility
10 SM
Flight Rules
MVFR
Cloud Levels
  • Overcast at 1,400' AGL
Temperature
-1°C / 30°F
Dewpoint
-4°C / 25°F
Humidity
80%
Altimeter
29.79" Hg
Pressure
1009.6 hPa
Current Rain
0.01"
Previous

22 mins ago

KMGY 171742Z AUTO 11005KT 10SM UP OVC014 M01/M05 A2980 RMK AO2 UPE1659B30 P0000 T10111050
Observed
Feb-17 @ 17:42 UTC
Wind
  • 110° at 5 KTS
Visibility
10 SM
Flight Rules
MVFR
Conditions
Unknown precipitation
Cloud Levels
  • Overcast at 1,400' AGL
Temperature
-1°C / 30°F
Dewpoint
-5°C / 23°F
Humidity
75%
Altimeter
29.8" Hg
Pressure
1009.12 hPa
Current Rain
0.01"
Previous

1 hour ago

KMGY 171653Z AUTO 09007KT 10SM UP OVC016 M01/M05 A2980 RMK AO2 UPB49 SLP102 P0000 T10061050
Observed
Feb-17 @ 16:53 UTC
Wind
  • 090° at 7 KTS
Visibility
10 SM
Flight Rules
MVFR
Conditions
Unknown precipitation
Cloud Levels
  • Overcast at 1,600' AGL
Temperature
-1°C / 30°F
Dewpoint
-5°C / 23°F
Humidity
75%
Altimeter
29.8" Hg
Pressure
1010.2 hPa
Current Rain
0.01"